createdAt,value
2018-05-31T00:01:16.872Z,11.20
2018-05-31T00:03:42.900Z,12.30
2018-05-31T00:06:08.930Z,11.67
2018-05-31T00:08:34.965Z,13.37
2018-05-31T00:11:00.989Z,12.30
2018-05-31T00:13:27.021Z,12.07
2018-05-31T00:15:53.046Z,11.20
2018-05-31T00:18:19.085Z,13.10
2018-05-31T00:20:45.894Z,12.47
2018-05-31T00:23:11.932Z,10.50
2018-05-31T00:25:37.965Z,12.97
2018-05-31T00:28:03.988Z,11.90
2018-05-31T00:30:30.014Z,10.37
2018-05-31T00:32:56.093Z,16.13
2018-05-31T00:35:22.121Z,12.27
2018-05-31T00:37:48.152Z,13.60
2018-05-31T00:40:14.177Z,12.30
2018-05-31T00:42:40.220Z,13.03
2018-05-31T00:45:06.249Z,13.03
2018-05-31T00:47:32.282Z,10.90
2018-05-31T00:49:58.317Z,11.30
2018-05-31T00:52:24.373Z,13.57
2018-05-31T00:54:50.463Z,13.60
2018-05-31T00:57:17.273Z,15.10
2018-05-31T00:59:43.303Z,13.67
2018-05-31T01:02:09.326Z,13.83
2018-05-31T01:04:35.349Z,14.13
2018-05-31T01:07:01.392Z,14.10
2018-05-31T01:09:27.425Z,19.60
2018-05-31T01:11:54.233Z,18.43
2018-05-31T01:14:20.243Z,12.83
2018-05-31T01:16:46.285Z,13.07
2018-05-31T01:19:12.330Z,13.93
2018-05-31T01:21:38.361Z,14.97
2018-05-31T01:24:04.400Z,14.67
2018-05-31T01:26:31.173Z,16.73
2018-05-31T01:28:57.222Z,13.63
2018-05-31T01:31:23.262Z,15.50
2018-05-31T01:33:49.295Z,15.43
2018-05-31T01:36:15.350Z,13.57
2018-05-31T01:38:41.382Z,13.43
2018-05-31T01:41:07.424Z,13.90
2018-05-31T01:43:33.480Z,13.43
2018-05-31T01:45:59.509Z,14.77
2018-05-31T01:48:25.529Z,15.20
2018-05-31T01:50:51.569Z,14.27
2018-05-31T01:53:17.597Z,14.27
2018-05-31T01:55:43.641Z,18.00
2018-05-31T01:58:09.680Z,19.77
2018-05-31T02:00:35.717Z,18.47
2018-05-31T02:03:01.813Z,19.07
2018-05-31T02:05:27.865Z,19.00
2018-05-31T02:07:53.922Z,21.23
2018-05-31T02:10:19.964Z,22.03
2018-05-31T02:12:46.001Z,17.83
2018-05-31T02:15:12.033Z,17.53
2018-05-31T02:17:38.072Z,17.27
2018-05-31T02:20:04.109Z,18.20
2018-05-31T02:22:30.152Z,17.33
2018-05-31T02:24:56.193Z,19.53
2018-05-31T02:27:22.225Z,17.50
2018-05-31T02:29:48.256Z,20.07
2018-05-31T02:32:14.289Z,14.87
2018-05-31T02:34:40.316Z,19.13
2018-05-31T02:37:06.351Z,18.27
2018-05-31T02:39:33.129Z,22.37
2018-05-31T02:41:59.160Z,18.00
2018-05-31T02:44:25.204Z,16.97
2018-05-31T02:46:51.233Z,16.03
2018-05-31T02:49:17.296Z,18.97
2018-05-31T02:51:43.333Z,18.43
2018-05-31T02:54:10.091Z,21.27
2018-05-31T02:56:36.117Z,22.57
2018-05-31T02:59:02.173Z,22.97
2018-05-31T03:01:28.213Z,20.37
2018-05-31T03:03:54.249Z,24.07
2018-05-31T03:06:20.313Z,24.80
2018-05-31T03:08:46.344Z,27.67
2018-05-31T03:11:12.362Z,24.47
2018-05-31T03:13:38.393Z,25.70
2018-05-31T03:16:04.424Z,29.97
2018-05-31T03:18:30.448Z,24.77
2018-05-31T03:20:56.486Z,26.20
2018-05-31T03:23:22.521Z,25.50
2018-05-31T03:25:48.537Z,29.80
2018-05-31T03:28:14.585Z,28.27
2018-05-31T03:30:40.616Z,29.03
2018-05-31T03:33:06.636Z,26.70
2018-05-31T03:35:32.672Z,28.03
2018-05-31T03:37:58.728Z,28.00
2018-05-31T03:40:24.772Z,23.23
2018-05-31T03:42:50.811Z,24.40
2018-05-31T03:45:16.855Z,24.40
2018-05-31T03:47:42.899Z,25.23
2018-05-31T03:50:09.672Z,23.50
2018-05-31T03:52:35.705Z,23.63
2018-05-31T03:55:01.777Z,24.07
2018-05-31T03:57:27.810Z,22.13
2018-05-31T03:59:53.828Z,20.60
2018-05-31T04:02:19.923Z,20.70
2018-05-31T04:04:45.952Z,23.30
2018-05-31T04:07:11.983Z,17.90
2018-05-31T04:09:38.789Z,17.67
2018-05-31T04:12:04.820Z,16.17
2018-05-31T04:14:30.864Z,14.67
2018-05-31T04:16:56.877Z,15.87
2018-05-31T04:19:22.910Z,13.73
2018-05-31T04:21:48.937Z,13.13
2018-05-31T04:24:14.962Z,13.93
2018-05-31T04:26:40.996Z,14.40
2018-05-31T04:29:07.034Z,14.43
2018-05-31T04:31:33.074Z,12.73
2018-05-31T04:33:59.093Z,13.70
2018-05-31T04:36:25.145Z,12.73
2018-05-31T04:38:51.181Z,14.27
2018-05-31T04:41:17.241Z,16.00
2018-05-31T04:43:43.284Z,13.70
2018-05-31T04:46:09.314Z,12.03
2018-05-31T04:48:35.354Z,11.17
2018-05-31T04:51:02.143Z,13.30
2018-05-31T04:53:28.206Z,11.13
2018-05-31T04:55:54.230Z,9.20
2018-05-31T04:58:20.305Z,8.20
2018-05-31T05:00:46.344Z,10.07
2018-05-31T05:03:12.369Z,8.27
2018-05-31T05:05:38.405Z,9.43
2018-05-31T05:08:04.437Z,9.27
2018-05-31T05:10:30.477Z,8.83
2018-05-31T05:12:56.536Z,8.33
2018-05-31T05:15:22.571Z,6.77
2018-05-31T05:17:48.617Z,6.50
2018-05-31T05:20:14.680Z,6.50
2018-05-31T05:22:41.460Z,9.13
2018-05-31T05:25:07.504Z,7.13
2018-05-31T05:27:33.540Z,7.93
2018-05-31T05:29:59.582Z,9.20
2018-05-31T05:32:25.677Z,8.27
2018-05-31T05:34:51.669Z,5.97
2018-05-31T05:37:17.709Z,7.10
2018-05-31T05:39:43.758Z,4.87
2018-05-31T05:42:09.773Z,7.47
2018-05-31T05:44:35.820Z,6.77
2018-05-31T05:47:01.845Z,9.10
2018-05-31T05:49:27.869Z,8.20
2018-05-31T05:51:53.922Z,7.43
2018-05-31T05:54:19.969Z,8.90
2018-05-31T05:56:45.997Z,4.83
2018-05-31T05:59:12.021Z,5.23
2018-05-31T06:01:38.068Z,8.33
2018-05-31T06:04:04.108Z,9.33
2018-05-31T06:06:30.148Z,4.70
2018-05-31T06:08:56.189Z,6.27
2018-05-31T06:11:22.234Z,5.37
2018-05-31T06:13:49.016Z,7.87
2018-05-31T06:16:15.053Z,6.87
2018-05-31T06:18:41.101Z,8.63
2018-05-31T06:21:07.136Z,6.80
2018-05-31T06:23:33.916Z,6.53
2018-05-31T06:25:59.946Z,4.37
2018-05-31T06:28:25.989Z,5.77
2018-05-31T06:30:52.042Z,7.27
2018-05-31T06:33:18.889Z,7.00
2018-05-31T06:35:44.929Z,6.97
2018-05-31T06:38:11.704Z,8.03
2018-05-31T06:40:37.741Z,5.30
2018-05-31T06:43:03.769Z,6.27
2018-05-31T06:45:29.797Z,7.90
2018-05-31T06:47:55.848Z,6.30
2018-05-31T06:50:21.882Z,6.43
2018-05-31T06:52:48.673Z,6.20
2018-05-31T06:55:14.731Z,6.23
2018-05-31T06:57:40.784Z,5.07
2018-05-31T07:00:06.830Z,4.20
2018-05-31T07:02:32.869Z,4.07
2018-05-31T07:04:58.897Z,4.37
2018-05-31T07:07:24.929Z,5.57
2018-05-31T07:09:50.965Z,4.23
2018-05-31T07:12:16.989Z,5.17
2018-05-31T07:14:43.013Z,6.43
2018-05-31T07:17:09.063Z,4.50
2018-05-31T07:19:35.093Z,6.17
2018-05-31T07:22:01.150Z,4.80
2018-05-31T07:24:27.189Z,6.27
2018-05-31T07:26:53.216Z,5.80
2018-05-31T07:29:19.253Z,6.13
2018-05-31T07:31:45.298Z,5.00
2018-05-31T07:34:11.332Z,8.10
2018-05-31T07:36:37.362Z,7.87
2018-05-31T07:39:03.390Z,8.07
2018-05-31T07:41:29.408Z,10.47
2018-05-31T07:43:56.187Z,14.60
2018-05-31T07:46:22.225Z,13.17
2018-05-31T07:48:48.244Z,11.97
2018-05-31T07:51:14.319Z,10.73
2018-05-31T07:53:40.346Z,8.73
2018-05-31T07:56:06.369Z,10.00
2018-05-31T07:58:32.393Z,8.07
2018-05-31T08:00:58.416Z,10.03
2018-05-31T08:03:24.441Z,8.40
2018-05-31T08:05:50.472Z,9.27
2018-05-31T08:08:16.485Z,9.73
2018-05-31T08:10:42.515Z,9.60
2018-05-31T08:13:08.533Z,8.40
2018-05-31T08:15:34.558Z,8.97
2018-05-31T08:18:00.577Z,8.00
2018-05-31T08:20:26.589Z,7.40
2018-05-31T08:22:52.613Z,7.93
2018-05-31T08:25:19.373Z,8.43
2018-05-31T08:27:45.397Z,10.70
2018-05-31T08:30:13.154Z,12.20
2018-05-31T08:32:39.284Z,12.33
2018-05-31T08:35:05.313Z,8.43
2018-05-31T08:37:31.333Z,7.30
2018-05-31T08:39:57.353Z,12.40
2018-05-31T08:42:23.375Z,8.73
2018-05-31T08:44:49.402Z,10.47
2018-05-31T08:47:15.425Z,7.90
2018-05-31T08:49:41.449Z,8.30
2018-05-31T08:52:07.477Z,8.57
2018-05-31T08:54:33.496Z,9.87
2018-05-31T08:56:59.518Z,7.40
2018-05-31T08:59:25.634Z,7.27
2018-05-31T09:01:51.632Z,8.57
2018-05-31T09:04:17.703Z,7.50
2018-05-31T09:06:43.680Z,8.73
2018-05-31T09:09:09.710Z,6.77
2018-05-31T09:11:35.731Z,12.10
2018-05-31T09:14:01.782Z,7.77
2018-05-31T09:16:27.804Z,12.20
2018-05-31T09:18:53.817Z,10.17
2018-05-31T09:21:19.846Z,8.23
2018-05-31T09:23:45.876Z,10.17
2018-05-31T09:26:11.896Z,9.87
2018-05-31T09:28:37.996Z,8.97
2018-05-31T09:31:04.045Z,7.70
2018-05-31T09:33:30.093Z,9.73
2018-05-31T09:35:56.120Z,11.83
2018-05-31T09:38:22.128Z,10.50
2018-05-31T09:40:48.148Z,10.30
2018-05-31T09:43:14.162Z,8.53
2018-05-31T09:45:40.186Z,11.33
2018-05-31T09:48:06.204Z,8.10
2018-05-31T09:50:32.230Z,8.67
2018-05-31T09:52:58.261Z,9.77
2018-05-31T09:55:24.282Z,9.83
2018-05-31T09:57:50.308Z,8.53
2018-05-31T10:00:16.341Z,11.63
2018-05-31T10:02:42.385Z,10.60
2018-05-31T10:05:08.409Z,12.43
2018-05-31T10:07:34.440Z,8.77
2018-05-31T10:10:00.455Z,9.30
2018-05-31T10:12:26.469Z,10.37
2018-05-31T10:14:52.490Z,10.30
2018-05-31T10:17:18.513Z,11.03
2018-05-31T10:19:44.524Z,8.50
2018-05-31T10:22:10.545Z,10.33
2018-05-31T10:24:36.590Z,10.33
2018-05-31T10:27:02.609Z,10.77
2018-05-31T10:29:28.637Z,11.30
2018-05-31T10:31:54.661Z,11.27
2018-05-31T10:34:20.685Z,12.97
2018-05-31T10:36:46.710Z,11.27
2018-05-31T10:39:12.748Z,11.27
2018-05-31T10:41:38.769Z,11.53
2018-05-31T10:44:04.795Z,13.90
2018-05-31T10:46:30.882Z,11.60
2018-05-31T10:48:56.849Z,13.40
2018-05-31T10:51:22.872Z,11.47
2018-05-31T10:53:48.962Z,11.23
2018-05-31T10:56:14.952Z,13.70
2018-05-31T10:58:40.989Z,10.63
2018-05-31T11:01:07.012Z,10.70
2018-05-31T11:03:33.049Z,9.27
2018-05-31T11:05:59.077Z,9.47
2018-05-31T11:08:25.124Z,9.97
2018-05-31T11:10:51.143Z,11.50
2018-05-31T11:13:17.162Z,10.63
2018-05-31T11:15:43.193Z,12.07
2018-05-31T11:18:09.217Z,11.13
2018-05-31T11:20:35.232Z,11.70
2018-05-31T11:23:01.265Z,12.00
2018-05-31T11:25:27.284Z,9.47
2018-05-31T11:27:53.309Z,8.90
2018-05-31T11:30:19.326Z,9.33
2018-05-31T11:32:45.365Z,10.53
2018-05-31T11:35:11.385Z,10.83
2018-05-31T11:37:37.409Z,11.17
2018-05-31T11:40:03.425Z,11.77
2018-05-31T11:42:29.445Z,11.17
2018-05-31T11:44:55.466Z,10.67
2018-05-31T11:47:21.493Z,10.13
2018-05-31T11:49:47.526Z,13.03
2018-05-31T11:52:13.542Z,10.23
2018-05-31T11:54:39.568Z,11.37
2018-05-31T11:57:05.609Z,10.60
2018-05-31T11:59:31.633Z,14.47
2018-05-31T12:01:57.666Z,15.83
2018-05-31T12:04:24.441Z,14.60
2018-05-31T12:06:50.458Z,13.30
2018-05-31T12:09:16.531Z,13.57
2018-05-31T12:11:42.556Z,13.80
2018-05-31T12:14:08.586Z,14.80
2018-05-31T12:16:34.605Z,15.93
2018-05-31T12:19:00.637Z,15.73
2018-05-31T12:21:27.445Z,15.63
2018-05-31T12:23:53.490Z,15.10
2018-05-31T12:26:19.519Z,15.47
2018-05-31T12:28:45.560Z,14.90
2018-05-31T12:31:11.601Z,15.50
2018-05-31T12:33:37.618Z,15.87
2018-05-31T12:36:03.657Z,15.37
2018-05-31T12:38:29.706Z,15.23
2018-05-31T12:40:56.474Z,15.17
2018-05-31T12:43:22.527Z,13.90
2018-05-31T12:45:48.559Z,14.10
2018-05-31T12:48:14.589Z,15.93
2018-05-31T12:50:40.625Z,14.10
2018-05-31T12:53:06.649Z,13.47
2018-05-31T12:55:32.672Z,16.90
2018-05-31T12:57:58.701Z,17.30
2018-05-31T13:00:25.485Z,15.40
2018-05-31T13:02:51.496Z,15.20
2018-05-31T13:05:17.525Z,15.87
2018-05-31T13:07:43.557Z,15.10
2018-05-31T13:10:09.593Z,13.13
2018-05-31T13:12:35.628Z,14.27
2018-05-31T13:15:01.668Z,14.50
2018-05-31T13:17:27.701Z,13.27
2018-05-31T13:19:53.730Z,11.80
2018-05-31T13:22:19.760Z,12.67
2018-05-31T13:24:45.812Z,11.77
2018-05-31T13:27:11.824Z,12.60
2018-05-31T13:29:38.581Z,12.20
2018-05-31T13:32:04.631Z,10.70
2018-05-31T13:34:30.649Z,13.30
2018-05-31T13:36:56.672Z,16.03
2018-05-31T13:39:22.692Z,13.37
2018-05-31T13:41:50.161Z,13.82
2018-05-31T13:44:16.221Z,14.53
2018-05-31T13:46:42.253Z,12.17
2018-05-31T13:49:08.276Z,15.10
2018-05-31T13:51:34.309Z,13.57
2018-05-31T13:54:00.330Z,14.23
2018-05-31T13:56:27.106Z,12.17
2018-05-31T13:58:53.130Z,14.93
2018-05-31T14:01:19.172Z,13.67
2018-05-31T14:03:45.216Z,15.00
2018-05-31T14:06:11.244Z,12.93
2018-05-31T14:08:38.018Z,14.17
2018-05-31T14:11:04.045Z,16.97
2018-05-31T14:13:30.068Z,15.20
2018-05-31T14:15:56.123Z,14.70
2018-05-31T14:18:22.148Z,14.37
2018-05-31T14:20:48.177Z,13.33
2018-05-31T14:23:14.202Z,13.90
2018-05-31T14:25:40.245Z,12.87
2018-05-31T14:28:06.274Z,12.03
2018-05-31T14:30:32.317Z,12.03
2018-05-31T14:32:58.335Z,10.97
2018-05-31T14:35:24.363Z,14.83
2018-05-31T14:37:50.384Z,10.83
2018-05-31T14:40:16.407Z,9.07
2018-05-31T14:42:42.433Z,9.07
2018-05-31T14:45:08.469Z,15.33
2018-05-31T14:47:34.494Z,10.00
2018-05-31T14:50:00.524Z,11.60
2018-05-31T14:52:27.302Z,11.87
2018-05-31T14:54:53.336Z,14.80
2018-05-31T14:57:19.365Z,12.30
2018-05-31T14:59:45.402Z,9.07
2018-05-31T15:02:11.420Z,10.23
2018-05-31T15:04:37.451Z,9.17
2018-05-31T15:07:03.463Z,9.00
2018-05-31T15:09:29.518Z,9.17
2018-05-31T15:11:55.546Z,10.10
2018-05-31T15:14:21.571Z,11.30
2018-05-31T15:16:47.621Z,11.37
2018-05-31T15:19:13.661Z,7.67
2018-05-31T15:21:39.680Z,8.03
2018-05-31T15:24:06.433Z,9.27
2018-05-31T15:26:32.460Z,11.13
2018-05-31T15:28:58.485Z,9.23
2018-05-31T15:31:24.508Z,11.27
2018-05-31T15:33:50.544Z,9.93
2018-05-31T15:36:16.580Z,9.33
2018-05-31T15:38:42.613Z,7.20
2018-05-31T15:41:08.637Z,9.43
2018-05-31T15:43:34.648Z,11.10
2018-05-31T15:46:00.665Z,10.53
2018-05-31T15:48:26.689Z,12.30
2018-05-31T15:50:52.729Z,7.60
2018-05-31T15:53:18.756Z,10.17
2018-05-31T15:55:44.769Z,8.57
2018-05-31T15:58:10.797Z,11.80
2018-05-31T16:00:36.835Z,11.33
2018-05-31T16:03:02.856Z,12.17
2018-05-31T16:05:28.916Z,12.47
2018-05-31T16:07:54.934Z,14.87
2018-05-31T16:10:20.974Z,15.17
2018-05-31T16:12:47.745Z,13.40
2018-05-31T16:15:13.773Z,13.40
2018-05-31T16:17:39.797Z,14.67
2018-05-31T16:20:05.808Z,11.50
2018-05-31T16:22:31.832Z,25.37
2018-05-31T16:24:57.865Z,34.07
2018-05-31T16:27:23.900Z,36.07
2018-05-31T16:29:49.934Z,57.00
2018-05-31T16:32:15.997Z,38.53
2018-05-31T16:34:42.025Z,51.63
2018-05-31T16:37:08.037Z,55.07
2018-05-31T16:39:34.056Z,47.50
2018-05-31T16:42:00.079Z,55.00
2018-05-31T16:44:26.120Z,54.30
2018-05-31T16:46:52.141Z,58.50
2018-05-31T16:49:18.181Z,53.23
2018-05-31T16:51:44.957Z,59.60
2018-05-31T16:54:10.982Z,57.43
2018-05-31T16:56:37.005Z,54.80
2018-05-31T16:59:03.052Z,50.63
2018-05-31T17:01:29.093Z,52.73
2018-05-31T17:03:55.121Z,51.17
2018-05-31T17:06:21.144Z,49.73
2018-05-31T17:08:47.181Z,48.17
2018-05-31T17:11:13.217Z,42.47
2018-05-31T17:13:39.235Z,45.57
2018-05-31T17:16:05.253Z,45.77
2018-05-31T17:18:31.276Z,46.43
2018-05-31T17:20:57.301Z,51.93
2018-05-31T17:23:23.312Z,46.77
2018-05-31T17:25:49.321Z,47.77
2018-05-31T17:28:15.358Z,42.60
2018-05-31T17:30:41.379Z,47.20
2018-05-31T17:33:07.396Z,46.70
2018-05-31T17:35:33.465Z,45.87
2018-05-31T17:37:59.470Z,44.97
2018-05-31T17:40:25.470Z,43.50
2018-05-31T17:42:51.486Z,47.70
2018-05-31T17:45:17.510Z,53.50
2018-05-31T17:47:43.537Z,53.57
2018-05-31T17:50:09.565Z,46.13
2018-05-31T17:52:35.585Z,49.90
2018-05-31T17:55:01.597Z,44.37
2018-05-31T17:57:27.617Z,49.57
2018-05-31T17:59:53.638Z,42.80
2018-05-31T18:02:19.657Z,42.60
2018-05-31T18:04:45.668Z,44.80
2018-05-31T18:07:11.685Z,44.70
2018-05-31T18:09:37.716Z,43.50
2018-05-31T18:12:03.717Z,51.07
2018-05-31T18:14:29.782Z,54.30
2018-05-31T18:16:55.795Z,51.00
2018-05-31T18:19:21.825Z,53.97
2018-05-31T18:21:47.865Z,51.53
2018-05-31T18:24:13.927Z,54.57
2018-05-31T18:26:39.945Z,46.43
2018-05-31T18:29:05.970Z,50.93
2018-05-31T18:31:31.990Z,45.07
2018-05-31T18:33:58.010Z,43.60
2018-05-31T18:36:24.042Z,41.63
2018-05-31T18:38:50.073Z,41.77
2018-05-31T18:41:16.077Z,43.03
2018-05-31T18:43:42.079Z,45.20
2018-05-31T18:46:08.114Z,43.23
2018-05-31T18:48:34.125Z,42.77
2018-05-31T18:51:00.156Z,40.83
2018-05-31T18:53:26.170Z,44.90
2018-05-31T18:55:52.197Z,41.10
2018-05-31T18:58:18.217Z,45.77
2018-05-31T19:00:44.256Z,53.50
2018-05-31T19:03:10.280Z,47.60
2018-05-31T19:05:36.354Z,41.87
2018-05-31T19:08:03.129Z,43.10
2018-05-31T19:10:29.153Z,43.13
2018-05-31T19:13:01.266Z,47.73
2018-05-31T19:15:27.299Z,50.07
2018-05-31T19:17:53.325Z,52.80
2018-05-31T19:20:19.345Z,54.77
2018-05-31T19:22:45.368Z,44.80
2018-05-31T19:25:17.445Z,55.17
2018-05-31T19:27:43.465Z,47.87
2018-05-31T19:30:15.582Z,46.37
2018-05-31T19:32:41.650Z,43.40
2018-05-31T19:35:13.697Z,45.27
2018-05-31T19:37:39.704Z,48.77
2018-05-31T19:40:05.751Z,49.17
2018-05-31T19:42:37.913Z,61.47
2018-05-31T19:45:03.957Z,50.63
2018-05-31T19:47:29.972Z,52.90
2018-05-31T19:49:55.988Z,48.37
2018-05-31T19:52:28.184Z,52.37
2018-05-31T19:54:54.213Z,50.50
2018-05-31T19:57:20.246Z,63.00
2018-05-31T19:59:52.368Z,70.17
2018-05-31T20:02:24.609Z,63.30
2018-05-31T20:04:50.622Z,60.17
2018-05-31T20:07:16.644Z,55.30
2018-05-31T20:09:42.678Z,53.93
2018-05-31T20:12:08.689Z,52.43
2018-05-31T20:14:34.725Z,54.37
2018-05-31T20:17:00.745Z,60.33
2018-05-31T20:19:26.749Z,77.17
2018-05-31T20:21:52.757Z,49.43
2018-05-31T20:24:18.781Z,49.90
2018-05-31T20:26:44.805Z,53.50
2018-05-31T20:29:10.805Z,50.27
2018-05-31T20:31:36.868Z,61.47
2018-05-31T20:34:02.876Z,51.53
2018-05-31T20:36:28.881Z,52.83
2018-05-31T20:38:54.897Z,53.53
2018-05-31T20:41:20.912Z,54.63
2018-05-31T20:43:46.941Z,63.40
2018-05-31T20:46:12.945Z,56.70
2018-05-31T20:48:38.957Z,48.83
2018-05-31T20:51:05.739Z,49.83
2018-05-31T20:53:31.745Z,56.60
2018-05-31T20:55:57.821Z,58.57
2018-05-31T20:58:23.845Z,53.87
2018-05-31T21:00:49.850Z,53.23
2018-05-31T21:03:15.875Z,60.50
2018-05-31T21:05:41.912Z,67.00
2018-05-31T21:08:07.945Z,62.20
2018-05-31T21:10:33.956Z,79.43
2018-05-31T21:12:59.953Z,68.17
2018-05-31T21:15:26.013Z,63.97
2018-05-31T21:17:52.069Z,62.40
2018-05-31T21:20:18.114Z,56.00
2018-05-31T21:22:44.174Z,75.13
2018-05-31T21:25:10.184Z,63.23
2018-05-31T21:27:36.196Z,51.10
2018-05-31T21:30:02.209Z,81.13
2018-05-31T21:32:28.237Z,48.50
2018-05-31T21:34:54.258Z,54.10
2018-05-31T21:37:20.281Z,59.27
2018-05-31T21:39:46.316Z,64.83
2018-05-31T21:42:12.341Z,53.83
2018-05-31T21:44:38.366Z,54.50
2018-05-31T21:47:04.400Z,48.57
2018-05-31T21:49:30.418Z,45.57
2018-05-31T21:51:56.432Z,49.53
2018-05-31T21:54:22.440Z,53.47
2018-05-31T21:56:48.527Z,42.83
2018-05-31T21:59:14.540Z,49.10
2018-05-31T22:01:40.569Z,58.77
2018-05-31T22:04:06.589Z,53.90
2018-05-31T22:06:32.608Z,63.50
2018-05-31T22:08:58.622Z,52.30
2018-05-31T22:11:24.652Z,51.23
2018-05-31T22:13:50.674Z,54.63
2018-05-31T22:16:16.692Z,61.37
2018-05-31T22:18:42.727Z,65.00
2018-05-31T22:21:08.754Z,45.40
2018-05-31T22:23:34.769Z,50.10
2018-05-31T22:26:00.794Z,51.03
2018-05-31T22:28:26.817Z,50.60
2018-05-31T22:30:52.837Z,54.20
2018-05-31T22:33:18.849Z,42.57
2018-05-31T22:35:44.884Z,44.07
2018-05-31T22:38:10.938Z,40.20
2018-05-31T22:40:36.952Z,58.73
2018-05-31T22:43:02.960Z,44.37
2018-05-31T22:45:28.989Z,49.07
2018-05-31T22:47:55.016Z,39.37
2018-05-31T22:50:21.030Z,40.67
2018-05-31T22:52:47.057Z,40.50
2018-05-31T22:55:13.058Z,50.33
2018-05-31T22:57:39.069Z,48.87
2018-05-31T23:00:05.090Z,41.60
2018-05-31T23:02:31.121Z,42.37
2018-05-31T23:04:57.140Z,43.73
2018-05-31T23:07:23.160Z,41.00
2018-05-31T23:09:49.173Z,55.50
2018-05-31T23:12:15.937Z,61.80
2018-05-31T23:14:41.949Z,55.27
2018-05-31T23:17:07.977Z,33.67
2018-05-31T23:19:33.969Z,34.13
2018-05-31T23:21:59.980Z,40.63
2018-05-31T23:24:25.989Z,34.30
2018-05-31T23:26:52.017Z,38.87
2018-05-31T23:29:18.032Z,62.10
2018-05-31T23:31:44.045Z,36.67
2018-05-31T23:34:10.065Z,34.10
2018-05-31T23:36:36.073Z,35.50
2018-05-31T23:39:02.128Z,39.77
2018-05-31T23:41:28.132Z,35.77
2018-05-31T23:43:54.146Z,36.50
2018-05-31T23:46:20.204Z,32.50
2018-05-31T23:48:46.221Z,33.40
2018-05-31T23:51:12.249Z,51.20
2018-05-31T23:53:38.308Z,43.83
2018-05-31T23:56:04.320Z,44.33
2018-05-31T23:58:30.327Z,37.07
